Time;durP1;ratioP1;P1;durP2;ratioP2;P2;SDS_P1;SDS_P2;PMS_P1;PMS_P2;Temp;Humidity;BMP_temperature;BMP_pressure;BME280_temperature;BME280_humidity;BME280_pressure;Samples;Min_cycle;Max_cycle;Signal;HPM_P1;HPM_P2
2022/12/01 00:01:09;;;;;;;33.60;20.60;;;;;;;7.37;78.24;102444.03;3614755;39;20039;-65
2022/12/01 00:03:36;;;;;;;37.47;23.55;;;;;;;7.27;78.67;102418.41;3616131;39;20396;-65
2022/12/01 00:06:06;;;;;;;36.30;21.60;;;;;;;7.36;78.95;102437.81;3615437;39;20047;-65
2022/12/01 00:08:33;;;;;;;35.75;21.42;;;;;;;7.36;78.85;102437.81;3614027;39;20316;-65
2022/12/01 00:11:05;;;;;;;34.95;21.63;;;;;;;7.37;78.89;102436.00;3619482;39;20059;-64
2022/12/01 00:13:32;;;;;;;36.90;22.13;;;;;;;7.32;78.94;102432.53;3603932;39;20054;-64
2022/12/01 00:16:12;;;;;;;36.13;22.40;;;;;;;7.35;78.53;102433.34;3613613;39;20047;-64
2022/12/01 00:18:38;;;;;;;35.80;22.23;;;;;;;7.34;79.06;102428.91;3613672;39;20446;-65
2022/12/01 00:21:04;;;;;;;34.20;21.98;;;;;;;7.35;79.14;102427.13;3615259;39;20648;-65
2022/12/01 00:23:29;;;;;;;35.75;21.40;;;;;;;7.35;78.82;102428.00;3616076;39;20086;-64
2022/12/01 00:26:03;;;;;;;38.70;23.70;;;;;;;7.37;79.08;102430.66;3613084;39;20158;-65
2022/12/01 00:28:29;;;;;;;34.85;21.00;;;;;;;7.39;78.82;102424.34;3614973;39;20442;-64
2022/12/01 00:30:54;;;;;;;38.08;23.27;;;;;;;7.40;78.50;102425.22;3611998;39;20054;-65
2022/12/01 00:33:20;;;;;;;34.38;21.65;;;;;;;7.40;78.74;102431.47;3614319;39;20066;-65
2022/12/01 00:35:45;;;;;;;37.63;22.30;;;;;;;7.41;78.69;102426.97;3615104;39;20296;-65
2022/12/01 00:38:11;;;;;;;38.38;22.48;;;;;;;7.40;78.34;102426.09;3615334;39;20053;-65
2022/12/01 00:40:37;;;;;;;36.95;22.17;;;;;;;7.40;78.57;102425.22;3612984;39;20061;-65
2022/12/01 00:43:02;;;;;;;38.80;22.35;;;;;;;7.40;78.72;102430.59;3615531;39;20050;-65
2022/12/01 00:45:28;;;;;;;37.55;21.92;;;;;;;7.38;79.08;102427.06;3614582;39;20051;-65
2022/12/01 00:47:53;;;;;;;38.78;22.48;;;;;;;7.36;79.36;102432.44;3611463;39;20269;-65
2022/12/01 00:50:19;;;;;;;37.20;22.85;;;;;;;7.39;78.46;102423.44;3616904;39;20058;-64
2022/12/01 00:52:44;;;;;;;36.90;22.35;;;;;;;7.40;78.94;102427.91;3612586;39;20315;-64
2022/12/01 00:55:10;;;;;;;40.00;22.48;;;;;;;7.38;78.89;102433.28;3613937;39;20399;-64
2022/12/01 00:57:35;;;;;;;41.03;23.63;;;;;;;7.38;79.36;102430.59;3616394;39;20061;-64
2022/12/01 01:00:04;;;;;;;40.75;23.45;;;;;;;7.37;78.87;102431.53;3613322;39;20054;-65
2022/12/01 01:02:30;;;;;;;41.35;23.05;;;;;;;7.33;79.22;102420.94;3614570;39;20378;-65
2022/12/01 01:04:56;;;;;;;43.03;24.88;;;;;;;7.36;79.35;102427.09;3614751;39;20054;-65
2022/12/01 01:07:21;;;;;;;41.28;23.52;;;;;;;7.36;79.53;102429.78;3617310;39;20070;-64
2022/12/01 01:09:47;;;;;;;51.72;24.77;;;;;;;7.35;79.73;102437.81;3612677;39;20054;-65
2022/12/01 01:12:12;;;;;;;47.92;24.20;;;;;;;7.34;79.55;102442.28;3614391;39;20055;-64
2022/12/01 01:14:38;;;;;;;47.80;24.80;;;;;;;7.32;79.44;102437.88;3614680;39;20073;-64
2022/12/01 01:17:03;;;;;;;51.40;25.20;;;;;;;7.34;80.07;102444.97;3614186;39;20051;-64
2022/12/01 01:19:29;;;;;;;56.25;26.70;;;;;;;7.33;79.74;102437.00;3615123;39;20050;-64
2022/12/01 01:21:55;;;;;;;47.30;25.17;;;;;;;7.34;80.03;102446.78;3612219;39;20096;-64
2022/12/01 01:24:20;;;;;;;51.00;25.77;;;;;;;7.34;79.19;102449.44;3616787;39;20074;-64
2022/12/01 01:26:46;;;;;;;47.15;24.80;;;;;;;7.33;79.83;102448.56;3615645;39;20311;-64
2022/12/01 01:29:11;;;;;;;51.28;25.65;;;;;;;7.31;79.74;102447.72;3613991;39;20058;-65
2022/12/01 01:31:37;;;;;;;48.78;26.15;;;;;;;7.34;79.17;102453.00;3613554;39;20063;-65
2022/12/01 01:34:03;;;;;;;50.30;25.95;;;;;;;7.34;79.75;102454.78;3613665;39;20046;-66
2022/12/01 01:36:29;;;;;;;48.67;25.60;;;;;;;7.35;79.27;102459.22;3614992;39;20289;-64
2022/12/01 01:38:55;;;;;;;56.40;25.40;;;;;;;7.35;80.10;102461.91;3613353;39;20067;-64
2022/12/01 01:41:22;;;;;;;49.60;25.58;;;;;;;7.36;80.08;102463.69;3614021;39;20062;-65
2022/12/01 01:44:02;;;;;;;43.42;24.17;;;;;;;7.39;79.39;102467.16;3611873;39;20144;-64
2022/12/01 01:46:33;;;;;;;46.92;24.45;;;;;;;7.41;79.32;102464.44;3604391;39;20069;-65
2022/12/01 01:49:07;;;;;;;48.63;25.42;;;;;;;7.39;79.52;102466.25;3612487;39;20514;-65
2022/12/01 01:51:41;;;;;;;43.47;23.92;;;;;;;7.39;79.19;102463.59;3612618;39;20312;-65
2022/12/01 01:54:17;;;;;;;44.92;24.02;;;;;;;7.28;79.02;102441.56;3612094;39;20054;-65
2022/12/01 01:56:46;;;;;;;41.25;22.65;;;;;;;7.36;79.35;102455.66;3615241;39;20616;-64
2022/12/01 01:59:19;;;;;;;39.45;22.10;;;;;;;7.34;79.10;102465.50;3613333;39;20042;-64
2022/12/01 02:01:59;;;;;;;42.67;22.85;;;;;;;7.34;78.52;102463.69;3613603;39;20066;-65
2022/12/01 02:04:27;;;;;;;43.60;21.88;;;;;;;7.30;78.62;102462.00;3615867;39;20046;-65
2022/12/01 02:06:54;;;;;;;47.10;22.55;;;;;;;7.33;79.12;102469.09;3613485;39;20061;-64
2022/12/01 02:09:20;;;;;;;42.72;22.42;;;;;;;7.33;78.37;102461.06;3612223;39;20051;-64
2022/12/01 02:12:12;;;;;;;45.85;24.88;;;;;;;7.30;79.10;102455.78;3611951;39;20066;-64
2022/12/01 02:15:07;;;;;;;46.13;23.95;;;;;;;7.27;79.01;102461.22;3614356;39;20039;-64
2022/12/01 02:18:03;;;;;;;46.33;23.08;;;;;;;7.31;78.77;102462.88;3611880;39;20066;-64
2022/12/01 02:20:49;;;;;;;47.65;22.92;;;;;;;7.32;78.62;102470.00;3613639;39;20158;-65
2022/12/01 02:23:55;;;;;;;44.92;23.75;;;;;;;7.31;79.32;102462.88;3614195;39;20050;-65
2022/12/01 02:27:09;;;;;;;42.63;22.80;;;;;;;7.33;78.59;102469.09;3616964;39;20127;-64
2022/12/01 02:30:03;;;;;;;45.97;23.42;;;;;;;7.32;79.30;102457.50;3614413;39;20517;-64
2022/12/01 02:32:44;;;;;;;;;;;;;;;7.31;79.31;102463.75;3614567;39;20055;-65
2022/12/01 02:35:34;;;;;;;43.83;21.88;;;;;;;7.32;79.03;102467.31;3613320;39;19953;-64
2022/12/01 02:38:16;;;;;;;47.15;24.10;;;;;;;6.97;78.99;102405.66;3616277;39;20066;-65
2022/12/01 02:41:19;;;;;;;44.25;23.75;;;;;;;7.30;79.38;102463.81;3613301;39;20069;-64
2022/12/01 02:44:18;;;;;;;48.22;25.02;;;;;;;7.32;78.57;102459.28;3615318;39;20108;-65
2022/12/01 02:47:09;;;;;;;47.45;24.77;;;;;;;7.31;79.58;102466.44;3612431;39;20085;-64
2022/12/01 02:49:42;;;;;;;50.03;24.33;;;;;;;7.30;79.57;102467.38;3613386;39;20077;-64
2022/12/01 02:52:10;;;;;;;46.60;23.92;;;;;;;7.26;79.25;102460.28;3614960;39;20067;-64
2022/12/01 02:54:37;;;;;;;49.15;24.73;;;;;;;7.34;79.73;102468.16;3614949;39;20050;-64
2022/12/01 02:57:03;;;;;;;50.78;25.88;;;;;;;7.35;79.53;102469.91;3616978;39;20584;-64
2022/12/01 02:59:28;;;;;;;47.80;25.38;;;;;;;7.33;78.92;102459.28;3615059;39;20054;-64
2022/12/01 03:02:23;;;;;;;51.97;24.45;;;;;;;7.31;79.69;102462.88;3612120;39;20058;-64
2022/12/01 03:05:25;;;;;;;50.53;25.35;;;;;;;6.46;79.38;102322.13;3615273;39;20054;-64
2022/12/01 03:08:12;;;;;;;50.97;25.27;;;;;;;7.24;79.25;102461.28;3620721;39;20058;-64
2022/12/01 03:10:53;;;;;;;51.45;25.63;;;;;;;7.30;79.42;102469.16;3616971;39;20053;-64
2022/12/01 03:13:52;;;;;;;47.38;24.90;;;;;;;7.32;79.51;102461.97;3604125;39;20055;-64
2022/12/01 03:16:48;;;;;;;51.80;25.05;;;;;;;7.33;78.93;102467.28;3612582;39;20127;-64
2022/12/01 03:19:30;;;;;;;46.85;24.23;;;;;;;7.33;79.54;102472.66;3613500;39;20067;-65
2022/12/01 03:22:31;;;;;;;48.65;24.52;;;;;;;7.33;78.91;102466.41;3614334;39;20123;-65
2022/12/01 03:25:02;;;;;;;49.33;25.45;;;;;;;7.33;79.32;102463.75;3613439;39;20050;-65
2022/12/01 03:27:36;;;;;;;49.38;24.48;;;;;;;7.27;79.12;102448.72;3614244;39;20071;-65
2022/12/01 03:30:09;;;;;;;49.28;25.20;;;;;;;7.25;78.93;102449.66;3613052;39;20471;-66
2022/12/01 03:33:01;;;;;;;50.72;24.80;;;;;;;6.82;78.84;102386.38;3613340;39;20050;-65
2022/12/01 03:35:40;;;;;;;44.80;24.13;;;;;;;7.37;79.40;102466.31;3618127;39;20131;-65
2022/12/01 03:38:15;;;;;;;46.25;25.20;;;;;;;7.33;79.11;102456.59;3613913;39;20325;-65
2022/12/01 03:40:47;;;;;;;48.97;25.73;;;;;;;7.36;79.55;102466.34;3617746;39;20059;-65
2022/12/01 03:43:23;;;;;;;43.30;24.23;;;;;;;7.35;79.41;102464.56;3613467;39;20066;-65
2022/12/01 03:46:14;;;;;;;47.20;24.83;;;;;;;7.33;79.07;102461.06;3612972;39;20499;-65
2022/12/01 03:48:41;;;;;;;44.83;24.45;;;;;;;7.34;79.33;102468.16;3614773;39;20071;-65
2022/12/01 03:51:31;;;;;;;43.53;25.00;;;;;;;7.32;79.50;102461.97;3612976;39;20046;-65
2022/12/01 03:54:46;;;;;;;49.17;25.88;;;;;;;7.30;78.62;102456.66;3613832;39;20053;-65
2022/12/01 03:57:22;;;;;;;46.60;25.70;;;;;;;7.30;79.13;102466.50;3610217;39;20298;-65
2022/12/01 03:59:48;;;;;;;42.58;23.67;;;;;;;7.30;79.59;102463.81;3614048;39;20054;-65
2022/12/01 04:02:16;;;;;;;45.90;24.23;;;;;;;7.31;79.16;102473.59;3606928;39;20098;-65
2022/12/01 04:04:41;;;;;;;44.15;25.25;;;;;;;7.31;79.80;102473.59;3613733;39;20294;-65
2022/12/01 04:07:12;;;;;;;48.25;25.08;;;;;;;7.32;79.60;102470.00;3614849;39;20065;-65
2022/12/01 04:09:40;;;;;;;47.45;25.23;;;;;;;7.31;79.10;102478.94;3615768;39;20055;-65
2022/12/01 04:14:52;;;;;;;40.75;24.08;;;;;;;7.30;79.80;102478.06;3613987;39;20458;-64
2022/12/01 04:17:18;;;;;;;44.25;24.70;;;;;;;7.31;79.37;102471.78;3615038;39;20046;-65
2022/12/01 04:19:43;;;;;;;42.47;23.45;;;;;;;7.31;79.49;102468.25;3616499;39;20070;-65
2022/12/01 04:22:09;;;;;;;41.33;24.15;;;;;;;7.26;79.46;102462.09;3612456;39;20074;-65
2022/12/01 04:24:34;;;;;;;43.40;24.13;;;;;;;7.34;79.29;102469.03;3613916;39;20420;-64
2022/12/01 04:27:00;;;;;;;43.38;23.33;;;;;;;7.34;79.27;102473.53;3615390;39;20127;-65
2022/12/01 04:29:25;;;;;;;45.45;25.23;;;;;;;7.30;79.72;102471.84;3612958;39;20043;-65
2022/12/01 04:31:51;;;;;;;42.30;24.50;;;;;;;7.33;79.46;102469.97;3612419;39;20108;-65
2022/12/01 04:34:16;;;;;;;46.17;24.83;;;;;;;7.01;79.37;102411.84;3616715;39;20069;-65
2022/12/01 04:36:42;;;;;;;45.88;26.17;;;;;;;7.32;78.87;102468.19;3618575;39;20050;-65
2022/12/01 04:39:08;;;;;;;46.30;25.40;;;;;;;7.34;79.45;102469.03;3616161;39;20723;-65
2022/12/01 04:41:33;;;;;;;40.38;23.08;;;;;;;7.34;79.34;102466.38;3612666;39;20051;-65
2022/12/01 04:43:59;;;;;;;45.22;25.08;;;;;;;7.36;79.19;102471.72;3615294;39;20107;-65
2022/12/01 04:46:25;;;;;;;44.75;25.10;;;;;;;7.36;80.04;102474.38;3612208;39;20157;-65
2022/12/01 04:48:51;;;;;;;40.63;24.45;;;;;;;7.36;79.11;102469.91;3614222;39;20055;-65
2022/12/01 04:51:18;;;;;;;40.08;22.60;;;;;;;7.14;79.18;102440.06;3615940;39;20038;-65
2022/12/01 04:53:43;;;;;;;43.53;25.63;;;;;;;7.32;80.15;102467.31;3604390;39;20056;-65
2022/12/01 04:56:09;;;;;;;41.00;24.17;;;;;;;7.33;80.31;102474.44;3612275;39;20063;-65
2022/12/01 04:58:36;;;;;;;47.08;24.63;;;;;;;7.10;79.57;102435.69;3613003;39;20043;-64
2022/12/01 05:01:09;;;;;;;42.25;24.15;;;;;;;7.31;79.50;102471.78;3612077;39;20061;-65
2022/12/01 05:03:38;;;;;;;45.17;25.13;;;;;;;7.31;80.56;102468.25;3616823;39;20396;-64
2022/12/01 05:06:11;;;;;;;41.95;24.95;;;;;;;6.43;80.27;102316.84;3617412;39;20279;-64
2022/12/01 05:08:37;;;;;;;48.90;25.65;;;;;;;7.15;79.96;102447.16;3615791;39;20082;-64
2022/12/01 05:11:06;;;;;;;42.97;24.60;;;;;;;7.28;80.56;102468.31;3614066;39;20078;-64
2022/12/01 05:13:32;;;;;;;42.40;24.38;;;;;;;7.30;79.96;102469.16;3615566;39;20058;-64
2022/12/01 05:16:17;;;;;;;43.13;24.52;;;;;;;7.29;80.52;102472.72;3617132;39;20047;-64
2022/12/01 05:18:46;;;;;;;43.75;25.35;;;;;;;7.28;80.63;102469.19;3616325;39;20049;-64
2022/12/01 05:21:12;;;;;;;47.45;26.17;;;;;;;7.29;80.16;102462.03;3615417;39;20379;-64
2022/12/01 05:23:38;;;;;;;42.03;22.77;;;;;;;7.27;80.39;102466.56;3617200;39;20054;-64
2022/12/01 05:26:07;;;;;;;40.97;23.90;;;;;;;7.19;80.22;102453.31;3615135;39;20183;-64
2022/12/01 05:28:33;;;;;;;45.47;24.52;;;;;;;7.04;80.04;102438.50;3615986;39;20063;-64
2022/12/01 05:30:58;;;;;;;46.10;24.98;;;;;;;7.27;80.37;102471.91;3616513;39;20356;-64
2022/12/01 05:33:26;;;;;;;43.50;24.65;;;;;;;7.28;80.47;102473.66;3608989;39;20057;-64
2022/12/01 05:35:52;;;;;;;39.53;23.77;;;;;;;7.23;80.50;102463.06;3615750;39;20063;-64
2022/12/01 05:38:19;;;;;;;41.92;25.45;;;;;;;7.29;80.44;102478.06;3614435;39;20050;-64
2022/12/01 05:40:53;;;;;;;43.17;24.33;;;;;;;7.29;79.61;102478.06;3612890;39;20078;-64
2022/12/01 05:43:20;;;;;;;41.67;24.50;;;;;;;7.28;79.79;102485.22;3605324;39;20048;-64
2022/12/01 05:45:48;;;;;;;40.92;23.92;;;;;;;7.27;80.03;102479.94;3617577;39;20050;-64
2022/12/01 05:48:14;;;;;;;40.47;24.17;;;;;;;7.26;80.56;102481.69;3612074;39;20059;-64
2022/12/01 05:50:40;;;;;;;45.20;24.25;;;;;;;7.27;80.49;102478.13;3605002;39;20058;-64
2022/12/01 05:53:06;;;;;;;42.75;24.38;;;;;;;7.27;79.58;102478.13;3613404;39;20046;-64
2022/12/01 05:55:35;;;;;;;42.17;24.02;;;;;;;7.27;80.75;102482.59;3617782;39;20058;-64
2022/12/01 05:58:01;;;;;;;44.00;24.92;;;;;;;7.26;80.10;102480.81;3612220;39;20061;-63
2022/12/01 06:00:27;;;;;;;45.40;24.77;;;;;;;7.25;80.57;102479.06;3614679;39;20050;-64
2022/12/01 06:02:53;;;;;;;41.58;23.50;;;;;;;7.25;79.82;102487.97;3611195;39;20313;-64
2022/12/01 06:05:19;;;;;;;40.53;23.52;;;;;;;7.24;80.00;102490.69;3616570;39;20096;-64
2022/12/01 06:07:45;;;;;;;38.22;23.27;;;;;;;7.17;80.12;102472.09;3611242;39;20382;-64
2022/12/01 06:10:11;;;;;;;41.03;23.77;;;;;;;6.99;80.00;102451.09;3614506;39;20066;-64
2022/12/01 06:12:37;;;;;;;42.63;23.33;;;;;;;7.25;79.75;102489.78;3617741;39;20121;-64
2022/12/01 06:15:06;;;;;;;40.72;23.17;;;;;;;7.23;79.71;102487.13;3613466;39;20409;-64
2022/12/01 06:17:32;;;;;;;41.72;24.05;;;;;;;7.24;80.07;102482.66;3615043;39;20062;-64
2022/12/01 06:19:58;;;;;;;42.85;23.33;;;;;;;7.23;80.00;102484.47;3614174;39;20115;-65
2022/12/01 06:22:23;;;;;;;39.50;24.00;;;;;;;7.22;79.76;102482.69;3614044;39;20070;-64
2022/12/01 06:24:49;;;;;;;42.95;24.05;;;;;;;7.20;80.32;102487.22;3612848;39;20134;-64
2022/12/01 06:27:15;;;;;;;41.33;22.67;;;;;;;7.12;80.39;102463.28;3616312;39;20061;-64
2022/12/01 06:29:40;;;;;;;40.90;24.05;;;;;;;7.18;80.44;102484.53;3614572;39;20066;-64
2022/12/01 06:32:06;;;;;;;44.05;24.27;;;;;;;7.19;80.47;102491.66;3612696;39;20062;-64
2022/12/01 06:34:32;;;;;;;44.63;24.08;;;;;;;7.19;79.94;102485.41;3616495;39;20057;-63
2022/12/01 06:36:57;;;;;;;41.88;23.77;;;;;;;7.19;80.20;102480.06;3613090;39;21153;-64
2022/12/01 06:39:23;;;;;;;42.70;24.83;;;;;;;7.15;80.11;102475.72;3614244;39;20126;-64
2022/12/01 06:41:48;;;;;;;45.55;23.73;;;;;;;7.18;80.25;102481.88;3615288;39;21227;-64
2022/12/01 06:44:14;;;;;;;43.20;24.25;;;;;;;7.20;79.69;102485.41;3610508;39;20055;-64
2022/12/01 06:46:40;;;;;;;44.03;24.10;;;;;;;7.20;79.80;102482.72;3615158;39;20099;-64
2022/12/01 06:49:10;;;;;;;42.40;23.95;;;;;;;7.20;80.03;102487.22;3616740;39;20054;-64
2022/12/01 06:51:36;;;;;;;41.88;23.33;;;;;;;7.09;79.58;102471.38;3618007;39;20060;-64
2022/12/01 06:54:01;;;;;;;45.05;23.33;;;;;;;7.20;79.54;102490.75;3613515;39;20039;-64
2022/12/01 06:56:27;;;;;;;43.35;24.45;;;;;;;7.24;79.96;102493.38;3614620;39;20369;-64
2022/12/01 06:58:52;;;;;;;38.67;22.45;;;;;;;7.22;79.29;102499.59;3613687;39;20055;-64
2022/12/01 07:01:18;;;;;;;42.50;23.67;;;;;;;7.25;79.66;102505.81;3611048;39;20058;-64
2022/12/01 07:03:49;;;;;;;43.13;22.02;;;;;;;7.25;79.07;102508.50;3618108;39;20323;-64
2022/12/01 07:06:16;;;;;;;41.85;23.25;;;;;;;7.24;79.00;102512.09;3614000;39;20424;-64
2022/12/01 07:08:41;;;;;;;43.13;22.65;;;;;;;7.22;79.07;102512.97;3617381;39;20054;-63
2022/12/01 07:11:11;;;;;;;39.60;23.35;;;;;;;7.19;79.39;102518.38;3614719;39;20073;-62
2022/12/01 07:13:38;;;;;;;42.80;23.23;;;;;;;7.20;78.83;102520.19;3612681;39;20055;-65
2022/12/01 07:16:05;;;;;;;42.53;22.48;;;;;;;7.20;78.50;102517.50;3613106;39;20425;-63
2022/12/01 07:18:32;;;;;;;39.38;22.27;;;;;;;7.20;79.27;102517.50;3613806;39;20058;-62
2022/12/01 07:21:05;;;;;;;42.50;23.15;;;;;;;7.11;78.84;102507.00;3615835;39;20311;-65
2022/12/01 07:23:33;;;;;;;46.92;23.05;;;;;;;7.22;78.76;102523.69;3614330;39;20055;-62
2022/12/01 07:26:06;;;;;;;41.45;22.05;;;;;;;7.26;78.57;102528.97;3612675;39;20043;-62
2022/12/01 07:28:32;;;;;;;40.10;23.10;;;;;;;7.02;78.87;102488.47;3614765;39;20090;-65
2022/12/01 07:31:10;;;;;;;47.03;23.38;;;;;;;7.33;78.57;102533.28;3616743;39;20302;-63
2022/12/01 07:33:35;;;;;;;43.55;22.83;;;;;;;7.35;78.61;102529.66;3613399;39;20136;-62
2022/12/01 07:36:03;;;;;;;39.47;22.33;;;;;;;7.37;77.83;102532.31;3615445;39;20129;-64
2022/12/01 07:38:31;;;;;;;41.30;22.90;;;;;;;7.38;78.12;102526.03;3615085;39;20046;-63
2022/12/01 07:41:12;;;;;;;38.38;21.73;;;;;;;7.39;78.46;102530.47;3615630;39;20062;-64
2022/12/01 07:43:39;;;;;;;43.22;22.55;;;;;;;7.08;77.74;102482.09;3616306;39;20053;-64
2022/12/01 07:46:10;;;;;;;45.42;23.15;;;;;;;7.41;78.18;102534.88;3614023;39;20046;-64
2022/12/01 07:48:38;;;;;;;42.95;22.98;;;;;;;7.41;77.61;102536.69;3614243;39;20155;-64
2022/12/01 07:51:08;;;;;;;40.90;23.20;;;;;;;7.40;77.49;102537.59;3618691;39;20067;-64
2022/12/01 07:53:35;;;;;;;45.78;22.73;;;;;;;7.39;77.19;102536.72;3616628;39;20160;-65
2022/12/01 07:56:01;;;;;;;39.00;22.63;;;;;;;7.39;77.38;102541.16;3612334;39;20135;-66
2022/12/01 07:58:27;;;;;;;39.83;22.98;;;;;;;7.39;77.28;102546.50;3615673;39;20123;-65
2022/12/01 08:00:53;;;;;;;41.35;22.92;;;;;;;7.40;77.90;102541.16;3618294;39;20055;-63
2022/12/01 08:03:19;;;;;;;40.42;22.65;;;;;;;7.41;77.35;102534.88;3615064;39;20050;-65
2022/12/01 08:05:54;;;;;;;41.75;22.35;;;;;;;7.45;77.38;102546.38;3616337;39;20047;-65
2022/12/01 08:08:19;;;;;;;45.67;22.42;;;;;;;7.46;77.17;102548.16;3614955;39;20051;-65
2022/12/01 08:10:45;;;;;;;42.03;21.88;;;;;;;7.47;76.75;102551.72;3606949;39;20441;-65
2022/12/01 08:13:10;;;;;;;40.33;22.13;;;;;;;7.43;76.60;102553.59;3617353;39;20059;-65
2022/12/01 08:15:36;;;;;;;43.15;22.88;;;;;;;7.48;77.27;102557.03;3620249;39;20054;-65
2022/12/01 08:18:02;;;;;;;40.40;22.60;;;;;;;6.67;76.23;102422.34;3617073;39;20059;-65
2022/12/01 08:20:28;;;;;;;40.58;23.25;;;;;;;7.48;77.16;102559.69;3615416;39;20051;-65
2022/12/01 08:22:53;;;;;;;44.45;22.95;;;;;;;7.47;76.66;102560.63;3616311;39;20060;-65
2022/12/01 08:25:19;;;;;;;42.38;23.77;;;;;;;7.47;76.52;102555.28;3618107;39;20053;-65
2022/12/01 08:27:44;;;;;;;43.72;23.83;;;;;;;7.50;77.14;102557.00;3616621;39;20286;-66
2022/12/01 08:30:11;;;;;;;44.15;23.95;;;;;;;7.42;75.92;102543.78;3614126;39;20058;-65
2022/12/01 08:32:36;;;;;;;41.10;23.35;;;;;;;7.47;76.07;102560.63;3614930;39;20462;-65
2022/12/01 08:35:02;;;;;;;44.20;23.85;;;;;;;7.53;76.63;102568.53;3617561;39;20065;-65
2022/12/01 08:37:28;;;;;;;44.38;22.83;;;;;;;7.58;76.69;102577.34;3619840;39;20305;-65
2022/12/01 08:39:53;;;;;;;40.10;23.55;;;;;;;7.57;75.48;102561.31;3617088;39;20073;-65
2022/12/01 08:42:19;;;;;;;43.25;24.35;;;;;;;7.58;75.18;102571.09;3606493;39;20057;-64
2022/12/01 08:44:45;;;;;;;40.65;23.77;;;;;;;7.62;74.89;102575.50;3617078;39;20047;-64
2022/12/01 08:47:11;;;;;;;43.08;23.10;;;;;;;7.65;75.37;102575.41;3619395;39;20381;-64
2022/12/01 08:49:36;;;;;;;38.15;22.60;;;;;;;7.65;74.64;102573.63;3619329;39;20054;-64
2022/12/01 08:52:02;;;;;;;37.65;23.30;;;;;;;7.39;74.75;102531.38;3617769;39;20061;-64
2022/12/01 08:54:28;;;;;;;39.70;22.88;;;;;;;7.63;74.99;102564.72;3618917;39;20053;-64
2022/12/01 08:56:53;;;;;;;43.30;23.75;;;;;;;7.73;75.10;102575.25;3613351;39;20313;-64
2022/12/01 08:59:19;;;;;;;36.80;23.10;;;;;;;7.73;75.28;102575.25;3620921;39;20046;-64
2022/12/01 09:01:56;;;;;;;39.90;23.42;;;;;;;7.73;75.45;102575.25;3614693;39;20054;-64
2022/12/01 09:04:24;;;;;;;39.72;22.70;;;;;;;7.74;74.79;102577.00;3618128;39;20071;-65
2022/12/01 09:06:53;;;;;;;39.10;22.75;;;;;;;7.76;75.71;102575.19;3614314;39;20055;-64
2022/12/01 09:09:26;;;;;;;41.50;23.80;;;;;;;7.79;75.13;102577.78;3615649;39;20074;-64
2022/12/01 09:11:52;;;;;;;41.22;23.15;;;;;;;7.75;75.58;102563.59;3614546;39;20057;-64
2022/12/01 09:14:20;;;;;;;37.58;22.38;;;;;;;7.83;75.48;102580.38;3610310;39;20058;-64
2022/12/01 09:16:49;;;;;;;41.17;24.23;;;;;;;7.90;75.75;102576.66;3611647;39;20107;-64
2022/12/01 09:19:17;;;;;;;37.53;23.75;;;;;;;7.90;75.35;102571.28;3619678;39;20058;-64
2022/12/01 09:21:44;;;;;;;38.67;23.83;;;;;;;7.90;74.59;102576.66;3614509;39;20046;-64
2022/12/01 09:24:12;;;;;;;42.70;22.45;;;;;;;7.89;73.55;102573.97;3618343;39;20131;-64
2022/12/01 09:26:38;;;;;;;35.80;22.17;;;;;;;7.92;74.48;102584.63;3621079;39;20131;-64
2022/12/01 09:29:08;;;;;;;36.88;23.08;;;;;;;7.95;73.82;102583.69;3619663;39;20055;-64
2022/12/01 09:31:34;;;;;;;39.45;23.17;;;;;;;7.98;73.87;102581.81;3619369;39;20058;-65
2022/12/01 09:34:05;;;;;;;39.47;23.30;;;;;;;8.00;73.52;102577.31;3623944;39;20058;-64
2022/12/01 09:36:33;;;;;;;41.67;24.05;;;;;;;8.02;73.64;102579.94;3620581;39;20051;-64
2022/12/01 09:38:59;;;;;;;36.85;22.80;;;;;;;8.00;72.96;102582.66;3617069;39;20084;-65
2022/12/01 09:42:14;;;;;;;35.47;22.60;;;;;;;8.05;72.99;102591.47;3617191;39;20058;-64
2022/12/01 09:44:54;;;;;;;38.22;23.48;;;;;;;8.11;73.03;102585.97;3577258;40;20782;-64
2022/12/01 09:47:34;;;;;;;38.15;22.17;;;;;;;8.12;73.33;102592.22;3616550;39;20389;-65
2022/12/01 09:50:14;;;;;;;36.47;22.90;;;;;;;7.89;72.74;102552.56;3616205;39;20055;-65
2022/12/01 09:52:56;;;;;;;40.05;23.45;;;;;;;8.19;73.08;102584.94;3619642;39;20055;-65
2022/12/01 09:55:25;;;;;;;38.90;23.17;;;;;;;8.12;73.16;102568.13;3616685;39;20050;-65
2022/12/01 09:57:58;;;;;;;39.88;22.95;;;;;;;8.24;72.26;102581.19;3616257;39;20118;-66
2022/12/01 10:00:29;;;;;;;40.95;23.50;;;;;;;8.24;72.64;102573.16;3615218;39;20212;-66
2022/12/01 10:03:45;;;;;;;38.40;23.90;;;;;;;8.31;71.99;102581.97;3613995;39;20082;-65
2022/12/01 10:06:19;;;;;;;39.42;23.25;;;;;;;8.39;71.65;102589.84;3613158;39;20418;-65
2022/12/01 10:09:23;;;;;;;38.42;24.00;;;;;;;8.44;72.19;102578.09;3612303;39;20074;-65
2022/12/01 10:11:57;;;;;;;38.15;22.60;;;;;;;8.48;71.11;102574.41;3614649;39;20519;-65
2022/12/01 10:14:22;;;;;;;41.28;23.65;;;;;;;8.48;71.57;102574.41;3617043;39;20085;-64
2022/12/01 10:17:05;;;;;;;44.70;23.80;;;;;;;8.49;72.11;102569.91;3617891;39;20138;-65
2022/12/01 10:20:23;;;;;;;39.13;23.58;;;;;;;8.46;71.86;102565.50;3616329;39;20059;-64
2022/12/01 10:23:38;;;;;;;40.65;23.17;;;;;;;8.44;70.83;102570.03;3575903;40;20056;-65
2022/12/01 10:26:16;;;;;;;38.95;24.25;;;;;;;8.45;70.96;102566.44;3573353;40;21224;-65
2022/12/01 10:29:12;;;;;;;39.92;23.38;;;;;;;8.48;72.05;102562.81;3616776;39;20062;-64
2022/12/01 10:31:54;;;;;;;41.50;24.05;;;;;;;8.52;71.34;102562.69;3614157;39;20070;-65
2022/12/01 10:34:27;;;;;;;42.33;24.45;;;;;;;8.51;70.35;102560.94;3617663;39;20389;-65
2022/12/01 10:36:55;;;;;;;40.75;23.60;;;;;;;8.53;70.18;102558.19;3615584;39;20508;-65
2022/12/01 10:39:36;;;;;;;42.03;25.15;;;;;;;8.54;69.66;102555.50;3613117;39;20054;-63
2022/12/01 10:42:39;;;;;;;38.75;24.05;;;;;;;8.56;69.90;102545.63;3613333;39;20046;-64
2022/12/01 10:45:15;;;;;;;42.70;24.95;;;;;;;8.63;70.60;102545.44;3613916;39;20070;-64
2022/12/01 10:48:17;;;;;;;40.72;23.80;;;;;;;8.65;68.72;102538.25;3615520;39;20650;-64
2022/12/01 10:50:51;;;;;;;35.92;21.50;;;;;;;8.69;68.27;102543.50;3617805;39;20134;-65
2022/12/01 10:53:24;;;;;;;42.17;24.02;;;;;;;8.71;68.50;102543.44;3617148;39;20074;-64
2022/12/01 10:56:20;;;;;;;40.03;23.23;;;;;;;8.69;68.26;102545.28;3617058;39;20042;-64
2022/12/01 10:59:01;;;;;;;38.33;23.85;;;;;;;8.67;68.82;102536.41;3616143;39;20058;-63
2022/12/01 11:01:33;;;;;;;41.42;24.05;;;;;;;8.72;68.77;102539.81;3615906;39;20675;-63
2022/12/01 11:04:45;;;;;;;39.55;23.52;;;;;;;8.76;68.61;102536.16;3613619;39;20055;-64
2022/12/01 11:07:23;;;;;;;43.55;24.63;;;;;;;8.80;69.27;102533.34;3611207;39;22049;-63
2022/12/01 11:10:16;;;;;;;41.22;24.35;;;;;;;8.88;68.91;102535.84;3613766;39;20066;-65
2022/12/01 11:12:51;;;;;;;40.15;24.55;;;;;;;9.00;68.94;102535.47;3613346;39;20042;-65
2022/12/01 11:15:26;;;;;;;40.42;24.38;;;;;;;9.06;68.47;102542.47;3615804;39;20096;-65
2022/12/01 11:18:04;;;;;;;38.90;24.08;;;;;;;9.02;68.34;102533.63;3611916;39;20062;-65
2022/12/01 11:20:38;;;;;;;43.45;25.63;;;;;;;8.97;68.34;102530.19;3613811;39;20390;-65
2022/12/01 11:23:23;;;;;;;37.50;23.58;;;;;;;8.97;69.64;102535.56;3615752;39;20197;-65
2022/12/01 11:26:03;;;;;;;39.90;23.45;;;;;;;8.98;68.37;102533.78;3618043;39;20046;-65
2022/12/01 11:28:33;;;;;;;38.95;23.95;;;;;;;8.97;69.47;102535.56;3615156;39;20054;-65
2022/12/01 11:31:08;;;;;;;43.22;24.77;;;;;;;8.96;69.12;102522.22;3617516;39;20058;-66
2022/12/01 11:33:51;;;;;;;39.20;23.45;;;;;;;8.80;69.20;102500.28;3615395;39;20062;-64
2022/12/01 11:36:40;;;;;;;39.97;24.30;;;;;;;8.78;69.34;102486.03;3619149;39;20407;-65
2022/12/01 11:39:06;;;;;;;38.28;25.02;;;;;;;8.98;69.01;102521.25;3616694;39;20064;-65
2022/12/01 11:41:39;;;;;;;40.20;24.00;;;;;;;8.97;69.54;102511.41;3618123;39;20215;-65
2022/12/01 11:44:18;;;;;;;38.03;23.77;;;;;;;8.98;69.12;102510.53;3616584;39;20397;-65